Terminal Aerodrome Forecast
Issued by NWS Anchorage, AK

Home | Current Version | Previous Version | Text Only | Print | Product List | Glossary On
Versions: 1 2 3 4 5 6 7 8 9 10 11 12 13 14 15 16 17 18 19 20 21 22 23 24 25 26 27 28 29 30 31 32 33 34 35 36 37 38 39 40 41 42 43 44 45 46 47 48 49 50
000
FTAK31 PANC 191942 AAA
TAFANC
TAF AMD
PANC 191942Z 1920/2024 13004KT 1/2SM FZFG VV001
      TEMPO 1922/1924 3SM BR BKN005
     FM200000 01005KT 3SM BR BKN005
     FM200200 VRB03KT P6SM VCFG SCT005
     FM200700 01007KT 1SM BR BKN005
     FM201900 04008KT P6SM SCT005 OVC080=

USA.gov is the U.S. government's official web portal to all federal, state and local government web resources and services.